sensor_id;sensor_type;location;lat;lon;timestamp;pressure;altitude;pressure_sealevel;temperature;humidity
59767;BME280;46248;58.364;25.582;2024-01-25T00:01:39;98073.09;;;0.38;100.00
59767;BME280;46248;58.364;25.582;2024-01-25T00:05:02;98073.94;;;0.39;100.00
59767;BME280;46248;58.364;25.582;2024-01-25T00:08:25;98080.75;;;0.40;100.00
59767;BME280;46248;58.364;25.582;2024-01-25T00:11:47;98080.81;;;0.38;100.00
59767;BME280;46248;58.364;25.582;2024-01-25T00:15:10;98089.31;;;0.40;100.00
59767;BME280;46248;58.364;25.582;2024-01-25T00:18:32;98079.94;;;0.39;100.00
59767;BME280;46248;58.364;25.582;2024-01-25T00:21:54;98085.75;;;0.43;100.00
59767;BME280;46248;58.364;25.582;2024-01-25T00:25:17;98065.91;;;0.28;100.00
59767;BME280;46248;58.364;25.582;2024-01-25T00:28:39;98092.56;;;0.44;100.00
59767;BME280;46248;58.364;25.582;2024-01-25T00:32:02;98095.16;;;0.44;100.00
59767;BME280;46248;58.364;25.582;2024-01-25T00:35:24;98100.22;;;0.45;100.00
59767;BME280;46248;58.364;25.582;2024-01-25T00:38:48;98091.94;;;0.39;100.00
59767;BME280;46248;58.364;25.582;2024-01-25T00:42:12;98111.34;;;0.46;100.00
59767;BME280;46248;58.364;25.582;2024-01-25T00:45:35;98119.13;;;0.44;100.00
59767;BME280;46248;58.364;25.582;2024-01-25T00:48:57;98114.91;;;0.43;100.00
59767;BME280;46248;58.364;25.582;2024-01-25T00:52:20;98115.75;;;0.44;100.00
59767;BME280;46248;58.364;25.582;2024-01-25T00:55:42;98122.53;;;0.45;100.00
59767;BME280;46248;58.364;25.582;2024-01-25T00:59:06;98125.13;;;0.45;100.00
59767;BME280;46248;58.364;25.582;2024-01-25T01:02:29;98135.41;;;0.45;100.00
59767;BME280;46248;58.364;25.582;2024-01-25T01:05:52;98132.16;;;0.41;100.00
59767;BME280;46248;58.364;25.582;2024-01-25T01:09:14;98129.69;;;0.40;100.00
59767;BME280;46248;58.364;25.582;2024-01-25T01:12:38;98136.69;;;0.36;100.00
59767;BME280;46248;58.364;25.582;2024-01-25T01:16:01;98136.00;;;0.33;100.00
59767;BME280;46248;58.364;25.582;2024-01-25T01:19:23;98137.84;;;0.31;100.00
59767;BME280;46248;58.364;25.582;2024-01-25T01:22:45;98134.56;;;0.27;100.00
59767;BME280;46248;58.364;25.582;2024-01-25T01:26:07;98148.81;;;0.34;100.00
59767;BME280;46248;58.364;25.582;2024-01-25T01:29:29;98153.13;;;0.34;100.00
59767;BME280;46248;58.364;25.582;2024-01-25T01:32:52;98154.03;;;0.33;100.00
59767;BME280;46248;58.364;25.582;2024-01-25T01:36:14;98150.72;;;0.31;100.00
59767;BME280;46248;58.364;25.582;2024-01-25T01:39:36;98160.91;;;0.32;100.00
59767;BME280;46248;58.364;25.582;2024-01-25T01:42:59;98153.34;;;0.29;100.00
59767;BME280;46248;58.364;25.582;2024-01-25T01:46:32;98166.16;;;0.31;100.00
59767;BME280;46248;58.364;25.582;2024-01-25T01:49:56;98167.03;;;0.30;100.00
59767;BME280;46248;58.364;25.582;2024-01-25T01:53:19;98161.16;;;0.28;100.00
59767;BME280;46248;58.364;25.582;2024-01-25T01:56:41;98178.09;;;0.32;100.00
59767;BME280;46248;58.364;25.582;2024-01-25T02:00:07;98169.56;;;0.31;100.00
59767;BME280;46248;58.364;25.582;2024-01-25T02:03:30;98178.03;;;0.33;100.00
59767;BME280;46248;58.364;25.582;2024-01-25T02:06:53;98171.22;;;0.32;100.00
59767;BME280;46248;58.364;25.582;2024-01-25T02:10:15;98179.72;;;0.34;100.00
59767;BME280;46248;58.364;25.582;2024-01-25T02:13:38;98150.72;;;0.12;100.00
59767;BME280;46248;58.364;25.582;2024-01-25T02:17:00;98190.84;;;0.35;100.00
59767;BME280;46248;58.364;25.582;2024-01-25T02:20:22;98196.03;;;0.33;100.00
59767;BME280;46248;58.364;25.582;2024-01-25T02:23:45;98195.22;;;0.33;100.00
59767;BME280;46248;58.364;25.582;2024-01-25T02:27:07;98203.69;;;0.35;100.00
59767;BME280;46248;58.364;25.582;2024-01-25T02:30:29;98217.41;;;0.35;100.00
59767;BME280;46248;58.364;25.582;2024-01-25T02:33:51;98213.16;;;0.34;100.00
59767;BME280;46248;58.364;25.582;2024-01-25T02:37:13;98224.22;;;0.36;100.00
59767;BME280;46248;58.364;25.582;2024-01-25T02:40:36;98223.38;;;0.36;100.00
59767;BME280;46248;58.364;25.582;2024-01-25T02:44:00;98227.66;;;0.37;100.00
59767;BME280;46248;58.364;25.582;2024-01-25T02:47:22;98235.38;;;0.37;100.00
59767;BME280;46248;58.364;25.582;2024-01-25T02:50:43;98234.66;;;0.33;100.00
59767;BME280;46248;58.364;25.582;2024-01-25T02:54:05;98241.50;;;0.34;100.00
59767;BME280;46248;58.364;25.582;2024-01-25T02:57:29;98251.16;;;0.29;100.00
59767;BME280;46248;58.364;25.582;2024-01-25T03:00:52;98244.25;;;0.30;100.00
59767;BME280;46248;58.364;25.582;2024-01-25T03:04:14;98217.06;;;0.05;100.00
59767;BME280;46248;58.364;25.582;2024-01-25T03:07:36;98253.22;;;0.21;100.00
59767;BME280;46248;58.364;25.582;2024-01-25T03:10:58;98268.91;;;0.16;100.00
59767;BME280;46248;58.364;25.582;2024-01-25T03:14:21;98274.03;;;0.16;100.00
59767;BME280;46248;58.364;25.582;2024-01-25T03:17:43;98275.84;;;0.14;100.00
59767;BME280;46248;58.364;25.582;2024-01-25T03:21:05;98281.06;;;0.13;100.00
59767;BME280;46248;58.364;25.582;2024-01-25T03:24:27;98288.84;;;0.11;100.00
59767;BME280;46248;58.364;25.582;2024-01-25T03:27:49;98288.97;;;0.08;100.00
59767;BME280;46248;58.364;25.582;2024-01-25T03:31:12;98297.47;;;0.10;100.00
59767;BME280;46248;58.364;25.582;2024-01-25T03:34:34;98295.81;;;0.09;100.00
59767;BME280;46248;58.364;25.582;2024-01-25T03:37:56;98292.78;;;-0.01;100.00
59767;BME280;46248;58.364;25.582;2024-01-25T03:41:18;98306.28;;;0.05;100.00
59767;BME280;46248;58.364;25.582;2024-01-25T03:44:40;98316.66;;;0.03;100.00
59767;BME280;46248;58.364;25.582;2024-01-25T03:48:04;98327.09;;;0.00;100.00
59767;BME280;46248;58.364;25.582;2024-01-25T03:51:26;98328.81;;;-0.01;100.00
59767;BME280;46248;58.364;25.582;2024-01-25T03:54:48;98333.06;;;0.01;100.00
59767;BME280;46248;58.364;25.582;2024-01-25T03:58:10;98335.66;;;0.01;100.00
59767;BME280;46248;58.364;25.582;2024-01-25T04:01:32;98346.91;;;-0.02;100.00
59767;BME280;46248;58.364;25.582;2024-01-25T04:04:55;98359.75;;;-0.02;100.00
59767;BME280;46248;58.364;25.582;2024-01-25T04:08:18;98363.22;;;-0.03;100.00
59767;BME280;46248;58.364;25.582;2024-01-25T04:11:39;98372.63;;;-0.02;100.00
59767;BME280;46248;58.364;25.582;2024-01-25T04:15:01;98369.28;;;-0.04;100.00
59767;BME280;46248;58.364;25.582;2024-01-25T04:18:23;98380.41;;;-0.04;100.00
59767;BME280;46248;58.364;25.582;2024-01-25T04:21:47;98389.03;;;-0.05;100.00
59767;BME280;46248;58.364;25.582;2024-01-25T04:25:10;98374.75;;;-0.12;100.00
59767;BME280;46248;58.364;25.582;2024-01-25T04:28:32;98395.13;;;-0.07;100.00
59767;BME280;46248;58.364;25.582;2024-01-25T04:31:54;98400.34;;;-0.09;100.00
59767;BME280;46248;58.364;25.582;2024-01-25T04:35:15;98410.56;;;-0.07;100.00
59767;BME280;46248;58.364;25.582;2024-01-25T04:38:39;98424.38;;;-0.10;100.00
59767;BME280;46248;58.364;25.582;2024-01-25T04:42:01;98432.22;;;-0.13;100.00
59767;BME280;46248;58.364;25.582;2024-01-25T04:45:22;98444.25;;;-0.13;100.00
59767;BME280;46248;58.364;25.582;2024-01-25T04:48:44;98449.47;;;-0.15;100.00
59767;BME280;46248;58.364;25.582;2024-01-25T04:52:06;98451.19;;;-0.15;100.00
59767;BME280;46248;58.364;25.582;2024-01-25T04:55:30;98452.09;;;-0.16;100.00
59767;BME280;46248;58.364;25.582;2024-01-25T04:58:51;98463.22;;;-0.16;100.00
59767;BME280;46248;58.364;25.582;2024-01-25T05:02:13;98473.63;;;-0.19;100.00
59767;BME280;46248;58.364;25.582;2024-01-25T05:05:35;98466.00;;;-0.20;100.00
59767;BME280;46248;58.364;25.582;2024-01-25T05:08:57;98484.00;;;-0.20;100.00
59767;BME280;46248;58.364;25.582;2024-01-25T05:12:20;98496.78;;;-0.19;100.00
59767;BME280;46248;58.364;25.582;2024-01-25T05:15:42;98500.25;;;-0.20;100.00
59767;BME280;46248;58.364;25.582;2024-01-25T05:19:04;98508.03;;;-0.21;100.00
59767;BME280;46248;58.364;25.582;2024-01-25T05:22:26;98523.41;;;-0.20;100.00
59767;BME280;46248;58.364;25.582;2024-01-25T05:25:48;98513.13;;;-0.20;100.00
59767;BME280;46248;58.364;25.582;2024-01-25T05:29:12;98538.06;;;-0.22;100.00
59767;BME280;46248;58.364;25.582;2024-01-25T05:32:33;98543.19;;;-0.22;100.00
59767;BME280;46248;58.364;25.582;2024-01-25T05:35:55;98548.41;;;-0.24;100.00
59767;BME280;46248;58.364;25.582;2024-01-25T05:39:17;98552.00;;;-0.28;100.00
59767;BME280;46248;58.364;25.582;2024-01-25T05:42:39;98554.50;;;-0.26;100.00
59767;BME280;46248;58.364;25.582;2024-01-25T05:46:03;98569.03;;;-0.25;100.00
59767;BME280;46248;58.364;25.582;2024-01-25T05:49:25;98575.00;;;-0.25;100.00
59767;BME280;46248;58.364;25.582;2024-01-25T05:52:46;98583.63;;;-0.26;100.00
59767;BME280;46248;58.364;25.582;2024-01-25T05:56:08;98585.50;;;-0.29;100.00
59767;BME280;46248;58.364;25.582;2024-01-25T05:59:30;98593.09;;;-0.26;100.00
59767;BME280;46248;58.364;25.582;2024-01-25T06:02:54;98596.81;;;-0.33;100.00
59767;BME280;46248;58.364;25.582;2024-01-25T06:06:16;98622.22;;;-0.26;100.00
59767;BME280;46248;58.364;25.582;2024-01-25T06:09:38;98626.44;;;-0.25;100.00
59767;BME280;46248;58.364;25.582;2024-01-25T06:13:00;98638.56;;;-0.27;100.00
59767;BME280;46248;58.364;25.582;2024-01-25T06:16:22;98641.16;;;-0.28;100.00
59767;BME280;46248;58.364;25.582;2024-01-25T06:19:46;98650.63;;;-0.29;100.00
59767;BME280;46248;58.364;25.582;2024-01-25T06:23:08;98660.00;;;-0.28;100.00
59767;BME280;46248;58.364;25.582;2024-01-25T06:26:30;98660.00;;;-0.28;100.00
59767;BME280;46248;58.364;25.582;2024-01-25T06:29:52;98658.34;;;-0.29;100.00
59767;BME280;46248;58.364;25.582;2024-01-25T06:33:14;98669.56;;;-0.31;100.00
59767;BME280;46248;58.364;25.582;2024-01-25T06:36:37;98626.94;;;-0.60;100.00
59767;BME280;46248;58.364;25.582;2024-01-25T06:39:59;98686.69;;;-0.30;100.00
59767;BME280;46248;58.364;25.582;2024-01-25T06:43:22;98700.22;;;-0.25;100.00
59767;BME280;46248;58.364;25.582;2024-01-25T06:46:44;98709.72;;;-0.27;100.00
59767;BME280;46248;58.364;25.582;2024-01-25T06:50:07;98720.16;;;-0.32;100.00
59767;BME280;46248;58.364;25.582;2024-01-25T06:53:31;98731.97;;;-0.26;100.00
59767;BME280;46248;58.364;25.582;2024-01-25T06:56:53;98737.00;;;-0.23;100.00
59767;BME280;46248;58.364;25.582;2024-01-25T07:00:16;98749.88;;;-0.23;100.00
59767;BME280;46248;58.364;25.582;2024-01-25T07:03:42;98744.94;;;-0.29;100.00
59767;BME280;46248;58.364;25.582;2024-01-25T07:07:09;98760.19;;;-0.25;100.00
59767;BME280;46248;58.364;25.582;2024-01-25T07:10:32;98761.94;;;-0.25;100.00
59767;BME280;46248;58.364;25.582;2024-01-25T07:13:54;98777.31;;;-0.24;100.00
59767;BME280;46248;58.364;25.582;2024-01-25T07:17:17;98782.50;;;-0.25;100.00
59767;BME280;46248;58.364;25.582;2024-01-25T07:20:38;98790.28;;;-0.27;100.00
59767;BME280;46248;58.364;25.582;2024-01-25T07:24:02;98785.47;;;-0.36;100.00
59767;BME280;46248;58.364;25.582;2024-01-25T07:27:26;98787.75;;;-0.28;100.00
59767;BME280;46248;58.364;25.582;2024-01-25T07:30:47;98796.38;;;-0.29;100.00
59767;BME280;46248;58.364;25.582;2024-01-25T07:34:11;98821.09;;;-0.25;100.00
59767;BME280;46248;58.364;25.582;2024-01-25T07:37:33;98824.50;;;-0.25;100.00
59767;BME280;46248;58.364;25.582;2024-01-25T07:40:54;98845.94;;;-0.24;100.00
59767;BME280;46248;58.364;25.582;2024-01-25T07:44:18;98838.34;;;-0.27;100.00
59767;BME280;46248;58.364;25.582;2024-01-25T07:47:41;98856.34;;;-0.27;100.00
59767;BME280;46248;58.364;25.582;2024-01-25T07:51:03;98867.38;;;-0.25;100.00
59767;BME280;46248;58.364;25.582;2024-01-25T07:54:25;98890.53;;;-0.25;100.00
59767;BME280;46248;58.364;25.582;2024-01-25T07:57:47;98892.34;;;-0.27;100.00
59767;BME280;46248;58.364;25.582;2024-01-25T08:01:10;98893.19;;;-0.27;100.00
59767;BME280;46248;58.364;25.582;2024-01-25T08:04:33;98916.34;;;-0.28;100.00
59767;BME280;46248;58.364;25.582;2024-01-25T08:07:55;98918.06;;;-0.27;100.00
59767;BME280;46248;58.364;25.582;2024-01-25T08:11:17;98929.13;;;-0.25;100.00
59767;BME280;46248;58.364;25.582;2024-01-25T08:14:40;98938.47;;;-0.22;100.00
59767;BME280;46248;58.364;25.582;2024-01-25T08:18:04;98944.44;;;-0.22;100.00
59767;BME280;46248;58.364;25.582;2024-01-25T08:21:26;98966.75;;;-0.22;100.00
59767;BME280;46248;58.364;25.582;2024-01-25T08:24:48;98959.13;;;-0.24;100.00
59767;BME280;46248;58.364;25.582;2024-01-25T08:28:10;98964.19;;;-0.22;100.00
59767;BME280;46248;58.364;25.582;2024-01-25T08:31:33;98978.63;;;-0.18;100.00
59767;BME280;46248;58.364;25.582;2024-01-25T08:34:56;98993.19;;;-0.17;100.00
59767;BME280;46248;58.364;25.582;2024-01-25T08:38:19;99004.16;;;-0.12;100.00
59767;BME280;46248;58.364;25.582;2024-01-25T08:41:41;99000.66;;;-0.10;100.00
59767;BME280;46248;58.364;25.582;2024-01-25T08:45:07;99008.28;;;-0.07;100.00
59767;BME280;46248;58.364;25.582;2024-01-25T08:48:29;99023.56;;;-0.02;100.00
59767;BME280;46248;58.364;25.582;2024-01-25T08:51:52;99028.66;;;-0.01;100.00
59767;BME280;46248;58.364;25.582;2024-01-25T08:55:15;99038.06;;;0.01;100.00
59767;BME280;46248;58.364;25.582;2024-01-25T08:58:36;99047.47;;;0.02;100.00
59767;BME280;46248;58.364;25.582;2024-01-25T09:01:58;99058.50;;;0.05;100.00
59767;BME280;46248;58.364;25.582;2024-01-25T09:05:20;99062.78;;;0.06;100.00
59767;BME280;46248;58.364;25.582;2024-01-25T09:08:44;99064.47;;;0.06;100.00
59767;BME280;46248;58.364;25.582;2024-01-25T09:12:06;99076.41;;;0.08;100.00
59767;BME280;46248;58.364;25.582;2024-01-25T09:15:28;99080.59;;;0.12;100.00
59767;BME280;46248;58.364;25.582;2024-01-25T09:18:51;99089.25;;;0.10;100.00
59767;BME280;46248;58.364;25.582;2024-01-25T09:22:13;99095.25;;;0.10;100.00
59767;BME280;46248;58.364;25.582;2024-01-25T09:25:38;99118.34;;;0.12;100.00
59767;BME280;46248;58.364;25.582;2024-01-25T09:29:02;99124.34;;;0.12;100.00
59767;BME280;46248;58.364;25.582;2024-01-25T09:32:25;99139.78;;;0.12;100.00
59767;BME280;46248;58.364;25.582;2024-01-25T09:35:47;99144.88;;;0.14;100.00
59767;BME280;46248;58.364;25.582;2024-01-25T09:39:10;99158.66;;;0.13;100.00
59767;BME280;46248;58.364;25.582;2024-01-25T09:42:34;99172.25;;;0.16;100.00
59767;BME280;46248;58.364;25.582;2024-01-25T09:45:57;99173.16;;;0.15;100.00
59767;BME280;46248;58.364;25.582;2024-01-25T09:49:19;99190.22;;;0.18;100.00
59767;BME280;46248;58.364;25.582;2024-01-25T09:52:43;99191.13;;;0.17;100.00
59767;BME280;46248;58.364;25.582;2024-01-25T09:56:07;99203.97;;;0.18;100.00
59767;BME280;46248;58.364;25.582;2024-01-25T09:59:31;99202.22;;;0.19;100.00
59767;BME280;46248;58.364;25.582;2024-01-25T10:02:53;99207.41;;;0.17;100.00
59767;BME280;46248;58.364;25.582;2024-01-25T10:06:15;99209.00;;;0.21;100.00
59767;BME280;46248;58.364;25.582;2024-01-25T10:09:39;99223.50;;;0.24;100.00
59767;BME280;46248;58.364;25.582;2024-01-25T10:13:01;99237.28;;;0.23;100.00
59767;BME280;46248;58.364;25.582;2024-01-25T10:16:25;99245.88;;;0.22;100.00
59767;BME280;46248;58.364;25.582;2024-01-25T10:19:48;99250.13;;;0.23;100.00
59767;BME280;46248;58.364;25.582;2024-01-25T10:23:12;99263.06;;;0.21;100.00
59767;BME280;46248;58.364;25.582;2024-01-25T10:26:34;99231.03;;;0.02;100.00
59767;BME280;46248;58.364;25.582;2024-01-25T10:29:57;99279.34;;;0.22;100.00
59767;BME280;46248;58.364;25.582;2024-01-25T10:33:20;99275.03;;;0.22;100.00
59767;BME280;46248;58.364;25.582;2024-01-25T10:36:42;99285.34;;;0.22;100.00
59767;BME280;46248;58.364;25.582;2024-01-25T10:40:09;99293.06;;;0.22;100.00
59767;BME280;46248;58.364;25.582;2024-01-25T10:43:32;99301.63;;;0.23;100.00
59767;BME280;46248;58.364;25.582;2024-01-25T10:46:55;99265.47;;;-0.02;100.00
59767;BME280;46248;58.364;25.582;2024-01-25T10:50:19;99312.75;;;0.23;100.00
59767;BME280;46248;58.364;25.582;2024-01-25T10:53:42;99317.81;;;0.27;100.00
59767;BME280;46248;58.364;25.582;2024-01-25T10:57:05;99318.66;;;0.27;100.00
59767;BME280;46248;58.364;25.582;2024-01-25T11:00:31;99323.78;;;0.29;100.00
59767;BME280;46248;58.364;25.582;2024-01-25T11:03:53;99323.72;;;0.30;100.00
59767;BME280;46248;58.364;25.582;2024-01-25T11:07:17;99326.38;;;0.29;100.00
59767;BME280;46248;58.364;25.582;2024-01-25T11:10:39;99343.47;;;0.30;100.00
59767;BME280;46248;58.364;25.582;2024-01-25T11:14:01;99344.31;;;0.30;100.00
59767;BME280;46248;58.364;25.582;2024-01-25T11:17:23;99371.72;;;0.33;100.00
59767;BME280;46248;58.364;25.582;2024-01-25T11:20:47;99383.75;;;0.32;100.00
59767;BME280;46248;58.364;25.582;2024-01-25T11:24:13;99371.97;;;0.23;100.00
59767;BME280;46248;58.364;25.582;2024-01-25T11:27:35;99378.66;;;0.31;100.00
59767;BME280;46248;58.364;25.582;2024-01-25T11:30:58;99402.69;;;0.30;100.00
59767;BME280;46248;58.364;25.582;2024-01-25T11:34:20;99407.91;;;0.28;100.00
59767;BME280;46248;58.364;25.582;2024-01-25T11:37:43;99402.78;;;0.27;100.00
59767;BME280;46248;58.364;25.582;2024-01-25T11:41:07;99425.97;;;0.27;100.00
59767;BME280;46248;58.364;25.582;2024-01-25T11:44:29;99424.22;;;0.27;100.00
59767;BME280;46248;58.364;25.582;2024-01-25T11:47:51;99431.09;;;0.27;100.00
59767;BME280;46248;58.364;25.582;2024-01-25T11:51:14;99453.44;;;0.26;100.00
59767;BME280;46248;58.364;25.582;2024-01-25T11:54:36;99453.50;;;0.25;100.00
59767;BME280;46248;58.364;25.582;2024-01-25T11:57:59;99463.78;;;0.25;100.00
59767;BME280;46248;58.364;25.582;2024-01-25T12:01:22;99473.94;;;0.29;100.00
59767;BME280;46248;58.364;25.582;2024-01-25T12:04:46;99486.75;;;0.32;100.00
59767;BME280;46248;58.364;25.582;2024-01-25T12:08:09;99471.31;;;0.32;100.00
59767;BME280;46248;58.364;25.582;2024-01-25T12:11:34;99497.97;;;0.30;100.00
59767;BME280;46248;58.364;25.582;2024-01-25T12:15:01;99501.47;;;0.27;100.00
59767;BME280;46248;58.364;25.582;2024-01-25T12:18:24;99509.16;;;0.29;100.00
59767;BME280;46248;58.364;25.582;2024-01-25T12:21:46;99515.16;;;0.29;100.00
59767;BME280;46248;58.364;25.582;2024-01-25T12:25:09;99528.03;;;0.29;100.00
59767;BME280;46248;58.364;25.582;2024-01-25T12:28:34;99525.59;;;0.23;100.00
59767;BME280;46248;58.364;25.582;2024-01-25T12:31:58;99541.94;;;0.22;100.00
59767;BME280;46248;58.364;25.582;2024-01-25T12:35:20;99534.16;;;0.23;100.00
59767;BME280;46248;58.364;25.582;2024-01-25T12:38:42;99539.38;;;0.22;100.00
59767;BME280;46248;58.364;25.582;2024-01-25T12:42:04;99550.53;;;0.21;100.00
59767;BME280;46248;58.364;25.582;2024-01-25T12:45:27;99555.59;;;0.24;100.00
59767;BME280;46248;58.364;25.582;2024-01-25T12:48:50;99565.88;;;0.26;100.00
59767;BME280;46248;58.364;25.582;2024-01-25T12:52:16;99575.41;;;0.22;100.00
59767;BME280;46248;58.364;25.582;2024-01-25T12:55:39;99589.00;;;0.27;100.00
59767;BME280;46248;58.364;25.582;2024-01-25T12:59:01;99603.59;;;0.27;100.00
59767;BME280;46248;58.364;25.582;2024-01-25T13:02:23;99602.81;;;0.25;100.00
59767;BME280;46248;58.364;25.582;2024-01-25T13:05:47;99622.44;;;0.29;100.00
59767;BME280;46248;58.364;25.582;2024-01-25T13:09:09;99629.28;;;0.30;100.00
59767;BME280;46248;58.364;25.582;2024-01-25T13:12:32;99617.38;;;0.26;100.00
59767;BME280;46248;58.364;25.582;2024-01-25T13:15:53;99643.00;;;0.30;100.00
59767;BME280;46248;58.364;25.582;2024-01-25T13:19:17;99646.44;;;0.31;100.00
59767;BME280;46248;58.364;25.582;2024-01-25T13:22:41;99663.56;;;0.32;100.00
59767;BME280;46248;58.364;25.582;2024-01-25T13:26:03;99662.75;;;0.30;100.00
59767;BME280;46248;58.364;25.582;2024-01-25T13:29:25;99669.56;;;0.32;100.00
59767;BME280;46248;58.364;25.582;2024-01-25T13:32:47;99689.28;;;0.33;100.00
59767;BME280;46248;58.364;25.582;2024-01-25T13:36:09;99680.72;;;0.33;100.00
59767;BME280;46248;58.364;25.582;2024-01-25T13:39:35;99701.31;;;0.33;100.00
59767;BME280;46248;58.364;25.582;2024-01-25T13:42:57;99699.66;;;0.30;100.00
59767;BME280;46248;58.364;25.582;2024-01-25T13:46:19;99701.31;;;0.33;100.00
59767;BME280;46248;58.364;25.582;2024-01-25T13:49:44;99718.53;;;0.31;100.00
59767;BME280;46248;58.364;25.582;2024-01-25T13:53:06;99727.06;;;0.33;100.00
59767;BME280;46248;58.364;25.582;2024-01-25T13:56:29;99735.59;;;0.35;100.00
59767;BME280;46248;58.364;25.582;2024-01-25T13:59:51;99746.78;;;0.34;100.00
59767;BME280;46248;58.364;25.582;2024-01-25T14:03:14;99740.03;;;0.28;100.00
59767;BME280;46248;58.364;25.582;2024-01-25T14:06:37;99754.59;;;0.31;100.00
59767;BME280;46248;58.364;25.582;2024-01-25T14:09:59;99775.97;;;0.33;100.00
59767;BME280;46248;58.364;25.582;2024-01-25T14:13:23;99775.97;;;0.34;100.00
59767;BME280;46248;58.364;25.582;2024-01-25T14:16:45;99788.78;;;0.36;100.00
59767;BME280;46248;58.364;25.582;2024-01-25T14:20:08;99795.72;;;0.34;100.00
59767;BME280;46248;58.364;25.582;2024-01-25T14:23:30;99814.59;;;0.33;100.00
59767;BME280;46248;58.364;25.582;2024-01-25T14:26:52;99818.06;;;0.32;100.00
59767;BME280;46248;58.364;25.582;2024-01-25T14:30:15;99830.94;;;0.32;100.00
59767;BME280;46248;58.364;25.582;2024-01-25T14:33:37;99839.53;;;0.32;100.00
59767;BME280;46248;58.364;25.582;2024-01-25T14:37:04;99846.34;;;0.33;100.00
59767;BME280;46248;58.364;25.582;2024-01-25T14:40:25;99858.38;;;0.33;100.00
59767;BME280;46248;58.364;25.582;2024-01-25T14:44:07;99862.69;;;0.32;100.00
59767;BME280;46248;58.364;25.582;2024-01-25T14:47:31;99868.81;;;0.27;100.00
59767;BME280;46248;58.364;25.582;2024-01-25T14:50:53;99874.78;;;0.29;100.00
59767;BME280;46248;58.364;25.582;2024-01-25T14:54:15;99892.81;;;0.29;100.00
59767;BME280;46248;58.364;25.582;2024-01-25T14:57:37;99898.03;;;0.24;100.00
59767;BME280;46248;58.364;25.582;2024-01-25T15:00:59;99897.13;;;0.28;100.00
59767;BME280;46248;58.364;25.582;2024-01-25T15:04:22;99916.06;;;0.24;100.00
59767;BME280;46248;58.364;25.582;2024-01-25T15:07:47;99928.06;;;0.25;100.00
59767;BME280;46248;58.364;25.582;2024-01-25T15:11:10;99927.34;;;0.18;100.00
59767;BME280;46248;58.364;25.582;2024-01-25T15:14:32;99936.81;;;0.16;100.00
59767;BME280;46248;58.364;25.582;2024-01-25T15:17:53;99941.97;;;0.16;100.00
59767;BME280;46248;58.364;25.582;2024-01-25T15:21:16;99945.47;;;0.12;100.00
59767;BME280;46248;58.364;25.582;2024-01-25T15:24:38;99954.06;;;0.11;100.00
59767;BME280;46248;58.364;25.582;2024-01-25T15:28:00;99961.81;;;0.10;100.00
59767;BME280;46248;58.364;25.582;2024-01-25T15:31:22;99965.28;;;0.07;100.00
59767;BME280;46248;58.364;25.582;2024-01-25T15:34:44;99976.47;;;0.05;100.00
59767;BME280;46248;58.364;25.582;2024-01-25T15:38:07;99986.84;;;0.02;100.00
59767;BME280;46248;58.364;25.582;2024-01-25T15:41:29;99995.44;;;0.01;100.00
59767;BME280;46248;58.364;25.582;2024-01-25T15:44:51;99998.88;;;-0.01;100.00
59767;BME280;46248;58.364;25.582;2024-01-25T15:48:13;100010.94;;;-0.04;100.00
59767;BME280;46248;58.364;25.582;2024-01-25T15:51:35;100008.47;;;-0.09;100.00
59767;BME280;46248;58.364;25.582;2024-01-25T15:54:58;100049.44;;;0.04;100.00
59767;BME280;46248;58.364;25.582;2024-01-25T15:58:21;100047.72;;;0.03;100.00
59767;BME280;46248;58.364;25.582;2024-01-25T16:01:43;100064.03;;;0.02;100.00
59767;BME280;46248;58.364;25.582;2024-01-25T16:05:05;100062.31;;;0.04;100.00
59767;BME280;46248;58.364;25.582;2024-01-25T16:08:27;100064.94;;;0.01;100.00
59767;BME280;46248;58.364;25.582;2024-01-25T16:11:50;100063.31;;;-0.07;100.00
59767;BME280;46248;58.364;25.582;2024-01-25T16:15:11;100062.47;;;-0.07;100.00
59767;BME280;46248;58.364;25.582;2024-01-25T16:18:33;100084.75;;;-0.06;100.00
59767;BME280;46248;58.364;25.582;2024-01-25T16:21:55;100092.53;;;-0.11;100.00
59767;BME280;46248;58.364;25.582;2024-01-25T16:25:18;100095.97;;;-0.10;100.00
59767;BME280;46248;58.364;25.582;2024-01-25T16:28:42;100091.72;;;-0.13;100.00
59767;BME280;46248;58.364;25.582;2024-01-25T16:32:04;100093.47;;;-0.16;100.00
59767;BME280;46248;58.364;25.582;2024-01-25T16:35:26;100102.88;;;-0.15;100.00
59767;BME280;46248;58.364;25.582;2024-01-25T16:38:47;100107.22;;;-0.17;100.00
59767;BME280;46248;58.364;25.582;2024-01-25T16:42:09;100110.66;;;-0.18;100.00
59767;BME280;46248;58.364;25.582;2024-01-25T16:45:33;100103.06;;;-0.26;100.00
59767;BME280;46248;58.364;25.582;2024-01-25T16:48:55;100115.84;;;-0.20;100.00
59767;BME280;46248;58.364;25.582;2024-01-25T16:52:17;100116.72;;;-0.22;100.00
59767;BME280;46248;58.364;25.582;2024-01-25T16:55:39;100126.16;;;-0.23;100.00
59767;BME280;46248;58.364;25.582;2024-01-25T16:59:01;100138.16;;;-0.20;100.00
59767;BME280;46248;58.364;25.582;2024-01-25T17:02:24;100156.97;;;-0.18;100.00
59767;BME280;46248;58.364;25.582;2024-01-25T17:05:46;100117.81;;;-0.39;100.00
59767;BME280;46248;58.364;25.582;2024-01-25T17:09:12;100150.13;;;-0.18;100.00
59767;BME280;46248;58.364;25.582;2024-01-25T17:12:35;100155.31;;;-0.22;100.00
59767;BME280;46248;58.364;25.582;2024-01-25T17:15:57;100164.72;;;-0.20;100.00
59767;BME280;46248;58.364;25.582;2024-01-25T17:19:20;100182.75;;;-0.21;100.00
59767;BME280;46248;58.364;25.582;2024-01-25T17:22:42;100182.69;;;-0.18;100.00
59767;BME280;46248;58.364;25.582;2024-01-25T17:26:05;100192.16;;;-0.19;100.00
59767;BME280;46248;58.364;25.582;2024-01-25T17:29:27;100178.44;;;-0.19;100.00
59767;BME280;46248;58.364;25.582;2024-01-25T17:32:49;100196.44;;;-0.18;100.00